Time;durP1;ratioP1;P1;durP2;ratioP2;P2;SDS_P1;SDS_P2;PMS_P1;PMS_P2;Temp;Humidity;BMP_temperature;BMP_pressure;BME280_temperature;BME280_humidity;BME280_pressure;Samples;Min_cycle;Max_cycle;Signal;HPM_P1;HPM_P2
2023/03/14 00:01:32;;;;;;;1999.90;999.90;;;;;;;11.23;100.00;93831.94;5084801;28;20174;-66
2023/03/14 00:03:57;;;;;;;1999.90;999.90;;;;;;;11.17;100.00;93819.28;5084449;28;20166;-67
2023/03/14 00:06:22;;;;;;;1999.90;999.90;;;;;;;11.10;100.00;93803.13;5084437;28;20164;-65
2023/03/14 00:08:48;;;;;;;1999.90;999.90;;;;;;;11.09;100.00;93785.22;5084925;28;20194;-66
2023/03/14 00:11:16;;;;;;;1999.90;999.90;;;;;;;11.09;100.00;93774.28;5084384;28;20486;-65
2023/03/14 00:13:42;;;;;;;1999.90;999.90;;;;;;;11.06;100.00;93775.19;5084170;28;20238;-64
2023/03/14 00:16:10;;;;;;;1999.90;999.90;;;;;;;11.01;100.00;93801.13;5084229;28;20170;-65
2023/03/14 00:18:36;;;;;;;1999.90;999.90;;;;;;;11.03;100.00;93806.16;5084332;28;20170;-65
2023/03/14 00:21:03;;;;;;;1999.90;999.90;;;;;;;11.07;100.00;93804.03;5084181;28;20209;-64
2023/03/14 00:23:29;;;;;;;1999.90;999.90;;;;;;;11.11;100.00;93804.69;5084241;28;20256;-65
2023/03/14 00:26:04;;;;;;;1999.90;999.90;;;;;;;11.16;100.00;93795.91;5084618;28;20171;-64
2023/03/14 00:28:29;;;;;;;1999.90;999.90;;;;;;;11.17;100.00;93781.03;5083979;28;20219;-65
2023/03/14 00:30:55;;;;;;;1999.90;999.90;;;;;;;11.18;100.00;93780.56;5084434;28;20255;-65
2023/03/14 00:33:21;;;;;;;1999.90;999.90;;;;;;;11.20;100.00;93780.13;5083987;28;20239;-64
2023/03/14 00:35:55;;;;;;;1999.90;999.90;;;;;;;11.23;100.00;93792.91;5083942;28;20173;-64
2023/03/14 00:38:21;;;;;;;1999.90;999.90;;;;;;;11.23;100.00;93790.94;5083733;28;20264;-64
2023/03/14 00:40:46;;;;;;;1999.90;999.90;;;;;;;11.22;100.00;93783.94;5084507;28;20173;-69
2023/03/14 00:43:12;;;;;;;1999.90;999.90;;;;;;;11.17;100.00;93776.31;5083963;28;20167;-64
2023/03/14 00:45:37;;;;;;;1999.90;999.90;;;;;;;11.16;100.00;93774.03;5083916;28;20209;-65
2023/03/14 00:48:03;;;;;;;1999.90;999.90;;;;;;;11.13;100.00;93786.63;5083921;28;20190;-65
2023/03/14 00:50:28;;;;;;;1999.90;999.90;;;;;;;11.13;100.00;93785.84;5084541;28;20177;-65
2023/03/14 00:52:53;;;;;;;1999.90;999.90;;;;;;;11.12;100.00;93790.56;5083723;28;20242;-65
2023/03/14 00:55:19;;;;;;;1999.90;999.90;;;;;;;11.14;100.00;93784.66;5083827;28;20215;-64
2023/03/14 00:57:44;;;;;;;1999.90;999.90;;;;;;;11.17;100.00;93789.22;5084324;28;20168;-64
2023/03/14 01:00:12;;;;;;;1999.90;999.90;;;;;;;11.17;100.00;93791.94;5083646;28;20168;-66
2023/03/14 01:02:37;;;;;;;1999.90;999.90;;;;;;;11.18;100.00;93799.69;5084533;28;20173;-65
2023/03/14 01:05:03;;;;;;;1999.90;999.90;;;;;;;11.16;100.00;93801.38;5083669;28;20170;-67
2023/03/14 01:07:29;;;;;;;1999.90;999.90;;;;;;;11.10;100.00;93814.06;5083631;28;20168;-65
2023/03/14 01:09:54;;;;;;;1999.90;999.90;;;;;;;11.05;100.00;93801.75;5083906;28;20267;-65
2023/03/14 01:12:20;;;;;;;1999.90;999.90;;;;;;;11.00;100.00;93787.91;5083908;28;20209;-65
2023/03/14 01:14:45;;;;;;;1999.90;999.90;;;;;;;10.96;100.00;93792.75;5084391;28;20236;-65
2023/03/14 01:17:10;;;;;;;1999.90;999.90;;;;;;;10.93;100.00;93782.69;5084070;28;20167;-65
2023/03/14 01:19:36;;;;;;;1999.90;999.90;;;;;;;10.86;100.00;93772.03;5083893;28;20167;-65
2023/03/14 01:22:01;;;;;;;1999.90;999.90;;;;;;;10.76;100.00;93756.78;5083257;28;20198;-66
2023/03/14 01:24:27;;;;;;;1999.90;999.90;;;;;;;10.70;100.00;93725.81;5083574;28;20488;-64
2023/03/14 01:26:52;;;;;;;1999.90;999.90;;;;;;;10.63;100.00;93707.69;5086265;28;20221;-64
2023/03/14 01:29:17;;;;;;;1999.90;999.90;;;;;;;10.55;100.00;93662.75;5087972;28;20166;-64
2023/03/14 01:31:43;;;;;;;1999.90;999.90;;;;;;;10.48;100.00;93583.13;5087440;28;20164;-64
2023/03/14 01:34:08;;;;;;;1999.90;999.90;;;;;;;10.41;100.00;93520.63;5087194;28;20200;-64
2023/03/14 01:36:33;;;;;;;1999.90;999.90;;;;;;;10.34;100.00;93447.97;5087835;28;20174;-63
2023/03/14 01:38:59;;;;;;;1999.90;999.90;;;;;;;10.29;100.00;93371.44;5087271;28;20170;-63
2023/03/14 01:41:25;;;;;;;1999.90;999.90;;;;;;;10.26;100.00;93301.44;5087218;28;20166;-63
2023/03/14 01:43:51;;;;;;;1999.90;999.90;;;;;;;10.24;100.00;93159.28;5087196;28;20248;-63
2023/03/14 01:46:31;;;;;;;1999.90;999.90;;;;;;;10.22;100.00;93064.28;5086973;28;20400;-63
2023/03/14 01:49:01;;;;;;;1999.90;999.90;;;;;;;10.25;100.00;93002.59;5087618;28;20165;-62
2023/03/14 01:51:39;;;;;;;1999.90;999.90;;;;;;;10.25;100.00;92937.91;5087590;28;20165;-62
2023/03/14 01:54:11;;;;;;;1999.90;999.90;;;;;;;10.25;100.00;92871.66;5087443;28;20208;-63
2023/03/14 01:56:38;;;;;;;1999.90;999.90;;;;;;;10.23;100.00;92784.13;5087414;28;20163;-61
2023/03/14 01:59:07;;;;;;;1999.90;999.90;;;;;;;10.20;100.00;92708.69;5086886;28;20162;-61
2023/03/14 02:01:34;;;;;;;1999.90;999.90;;;;;;;10.21;100.00;92677.47;5087056;28;20194;-62
2023/03/14 02:04:03;;;;;;;1999.90;999.90;;;;;;;10.18;100.00;92635.53;5086893;28;20226;-62
2023/03/14 02:06:40;;;;;;;1999.90;999.90;;;;;;;10.13;100.00;92587.84;5086625;28;20168;-62
2023/03/14 02:09:05;;;;;;;1999.90;999.90;;;;;;;10.07;100.00;92535.19;5087233;28;20173;-60
2023/03/14 02:11:31;;;;;;;1999.90;999.90;;;;;;;10.03;100.00;92504.59;5086646;28;20177;-61
2023/03/14 02:13:59;;;;;;;1999.90;999.90;;;;;;;9.97;100.00;92459.38;5087114;28;20189;-60
2023/03/14 02:16:24;;;;;;;1999.90;999.90;;;;;;;9.89;100.00;92461.75;5086747;28;20175;-61
2023/03/14 02:18:49;;;;;;;1999.90;999.90;;;;;;;9.81;100.00;92498.03;5086499;28;20166;-61
2023/03/14 02:21:37;;;;;;;1999.90;999.90;;;;;;;9.77;100.00;92615.38;5086784;28;20170;-61
2023/03/14 02:24:14;;;;;;;1999.90;999.90;;;;;;;9.70;100.00;92593.94;5087222;28;20165;-60
2023/03/14 02:27:09;;;;;;;1999.90;999.90;;;;;;;9.62;100.00;92609.13;5086803;28;20157;-61
2023/03/14 02:29:38;;;;;;;1999.90;999.90;;;;;;;9.54;100.00;92610.69;5086904;28;20174;-60
2023/03/14 02:32:05;;;;;;;1999.90;999.90;;;;;;;9.49;100.00;92602.41;5086674;28;20162;-61
2023/03/14 02:34:31;;;;;;;1999.90;999.90;;;;;;;9.44;100.00;92592.91;5086621;28;20205;-61
2023/03/14 02:36:57;;;;;;;1999.90;999.90;;;;;;;9.45;100.00;92572.66;5085249;28;20173;-61
2023/03/14 02:39:31;;;;;;;1999.90;999.90;;;;;;;9.39;100.00;92569.03;5086074;28;20191;-61
2023/03/14 02:41:57;;;;;;;1999.90;999.90;;;;;;;9.36;100.00;92561.78;5086472;28;20183;-61
2023/03/14 02:44:22;;;;;;;1999.90;999.90;;;;;;;9.36;100.00;92558.34;5086701;28;20346;-61
2023/03/14 02:46:48;;;;;;;1999.90;999.90;;;;;;;9.27;100.00;92547.50;5086570;28;20165;-61
2023/03/14 02:49:17;;;;;;;1999.90;999.90;;;;;;;9.26;100.00;92535.84;5086732;28;20299;-62
2023/03/14 02:51:44;;;;;;;1999.90;999.90;;;;;;;9.22;100.00;92532.53;5085953;28;20211;-61
2023/03/14 02:54:10;;;;;;;1999.90;999.90;;;;;;;9.20;100.00;92524.09;5085772;28;20440;-62
2023/03/14 02:56:36;;;;;;;1999.90;999.90;;;;;;;9.16;100.00;92501.75;5086395;28;20169;-62
2023/03/14 02:59:03;;;;;;;1999.90;999.90;;;;;;;9.13;100.00;92497.22;5086365;28;20351;-62
2023/03/14 03:01:28;;;;;;;1999.90;999.90;;;;;;;9.13;100.00;92497.22;5085774;28;20165;-62
2023/03/14 03:03:54;;;;;;;1999.90;999.90;;;;;;;9.12;100.00;92489.53;5086290;28;20172;-63
2023/03/14 03:06:19;;;;;;;1999.90;999.90;;;;;;;9.10;100.00;92498.16;5085937;28;20173;-62
2023/03/14 03:08:45;;;;;;;1999.90;999.90;;;;;;;9.08;100.00;92492.44;5085699;28;20169;-63
2023/03/14 03:11:10;;;;;;;1999.90;999.90;;;;;;;9.04;100.00;92477.50;5085550;28;20169;-63
2023/03/14 03:13:36;;;;;;;1999.90;999.90;;;;;;;9.05;100.00;92498.81;5085509;28;20200;-63
2023/03/14 03:16:02;;;;;;;1999.90;999.90;;;;;;;9.02;100.00;92507.88;5085430;28;20177;-63
2023/03/14 03:18:27;;;;;;;1999.90;999.90;;;;;;;8.98;100.00;92512.00;5085947;28;20165;-62
2023/03/14 03:20:53;;;;;;;1999.90;999.90;;;;;;;8.97;100.00;92522.16;5085294;28;20364;-63
2023/03/14 03:23:18;;;;;;;1999.90;999.90;;;;;;;9.00;100.00;92534.81;5085387;28;20249;-62
2023/03/14 03:25:51;;;;;;;1999.90;999.90;;;;;;;8.96;100.00;92534.22;5085221;28;20358;-63
2023/03/14 03:28:17;;;;;;;1999.90;999.90;;;;;;;8.93;100.00;92532.41;5085225;28;20219;-63
2023/03/14 03:30:43;;;;;;;1999.90;999.90;;;;;;;8.87;100.00;92534.28;5085151;28;20161;-65
2023/03/14 03:33:09;;;;;;;1999.90;999.90;;;;;;;8.86;100.00;92532.03;5084980;28;20235;-63
2023/03/14 03:35:34;;;;;;;1999.90;999.90;;;;;;;8.90;100.00;92541.53;5085469;28;20236;-64
2023/03/14 03:38:00;;;;;;;1999.90;999.90;;;;;;;8.88;100.00;92540.47;5085006;28;20157;-63
2023/03/14 03:40:25;;;;;;;1999.90;999.90;;;;;;;8.83;100.00;92549.28;5084942;28;20165;-63
2023/03/14 03:42:51;;;;;;;1999.90;999.90;;;;;;;8.74;100.00;92563.66;5084947;28;20236;-67
2023/03/14 03:45:16;;;;;;;1999.90;999.90;;;;;;;8.75;100.00;92554.28;5084627;28;20365;-66
2023/03/14 03:47:41;;;;;;;1999.90;999.90;;;;;;;8.79;100.00;92557.63;5084838;28;20362;-66
2023/03/14 03:50:07;;;;;;;1999.90;999.90;;;;;;;8.71;100.00;92586.34;5084396;28;20172;-63
2023/03/14 03:52:33;;;;;;;1999.90;999.90;;;;;;;8.69;100.00;92583.34;5084682;28;20165;-65
2023/03/14 03:54:58;;;;;;;1999.90;999.90;;;;;;;8.73;100.00;92599.50;5084460;28;20218;-65
2023/03/14 03:57:23;;;;;;;1999.90;999.90;;;;;;;8.68;100.00;92603.59;5084679;28;20192;-63
2023/03/14 03:59:49;;;;;;;1999.90;999.90;;;;;;;8.63;100.00;92606.19;5084800;28;20171;-64
2023/03/14 04:02:14;;;;;;;1999.90;999.90;;;;;;;8.63;100.00;92612.38;5084785;28;20162;-62
2023/03/14 04:04:39;;;;;;;1999.90;999.90;;;;;;;8.63;100.00;92612.38;5084996;28;20169;-61
2023/03/14 04:07:05;;;;;;;1999.90;999.90;;;;;;;8.62;100.00;92634.59;5084738;28;20188;-62
2023/03/14 04:09:31;;;;;;;1999.90;999.90;;;;;;;8.63;100.00;92647.72;5084868;28;20189;-63
2023/03/14 04:11:56;;;;;;;1999.90;999.90;;;;;;;8.65;100.00;92658.94;5084348;28;20241;-63
2023/03/14 04:14:22;;;;;;;1999.90;999.90;;;;;;;8.60;100.00;92666.94;5084424;28;20250;-63
2023/03/14 04:16:48;;;;;;;1999.90;999.90;;;;;;;8.58;100.00;92672.84;5084430;28;20169;-63
2023/03/14 04:19:13;;;;;;;1999.90;999.90;;;;;;;8.53;100.00;92684.31;5084679;28;20161;-62
2023/03/14 04:21:43;;;;;;;1999.90;999.90;;;;;;;8.52;100.00;92690.97;5084268;28;20196;-65
2023/03/14 04:24:09;;;;;;;1999.90;999.90;;;;;;;8.48;100.00;92695.06;5084961;28;20261;-65
2023/03/14 04:26:34;;;;;;;1999.90;999.90;;;;;;;8.48;100.00;92679.50;5084016;28;20372;-63
2023/03/14 04:28:59;;;;;;;1999.90;999.90;;;;;;;8.47;100.00;92686.16;5084606;28;20210;-64
2023/03/14 04:31:25;;;;;;;1999.90;999.90;;;;;;;8.45;100.00;92676.94;5084925;28;20183;-63
2023/03/14 04:33:51;;;;;;;1999.90;999.90;;;;;;;8.44;100.00;92681.63;5083971;28;20259;-63
2023/03/14 04:36:16;;;;;;;1999.90;999.90;;;;;;;8.48;100.00;92676.78;5084109;28;20247;-64
2023/03/14 04:38:41;;;;;;;1999.90;999.90;;;;;;;8.44;100.00;92683.56;5084053;28;20188;-66
2023/03/14 04:41:07;;;;;;;1999.90;999.90;;;;;;;8.44;100.00;92687.06;5084438;28;20192;-66
2023/03/14 04:43:32;;;;;;;1999.90;999.90;;;;;;;8.41;100.00;92687.97;5083917;28;20177;-64
2023/03/14 04:45:58;;;;;;;1999.90;999.90;;;;;;;8.41;100.00;92709.72;5084048;28;20239;-67
2023/03/14 04:48:24;;;;;;;1999.90;999.90;;;;;;;8.41;100.00;92730.75;5084525;28;20419;-65
2023/03/14 04:50:50;;;;;;;1999.90;999.90;;;;;;;8.42;100.00;92735.69;5083889;28;20165;-65
2023/03/14 04:53:17;;;;;;;1999.90;999.90;;;;;;;8.44;100.00;92751.56;5083718;28;20214;-65
2023/03/14 04:55:46;;;;;;;1999.90;999.90;;;;;;;8.43;100.00;92769.84;5084372;28;20170;-65
2023/03/14 04:58:12;;;;;;;1999.90;999.90;;;;;;;8.43;100.00;92791.59;5083763;28;20454;-66
2023/03/14 05:00:37;;;;;;;1999.90;999.90;;;;;;;8.45;100.00;92807.47;5083178;28;20222;-65
2023/03/14 05:03:02;;;;;;;1999.90;999.90;;;;;;;8.41;100.00;92821.19;5083684;28;20382;-66
2023/03/14 05:05:28;;;;;;;1999.90;999.90;;;;;;;8.40;100.00;92827.09;5084076;28;20177;-66
2023/03/14 05:07:53;;;;;;;1999.90;999.90;;;;;;;8.37;100.00;92855.94;5084225;28;20180;-67
2023/03/14 05:10:18;;;;;;;1999.90;999.90;;;;;;;8.35;100.00;92852.94;5084026;28;20282;-65
2023/03/14 05:12:44;;;;;;;1999.90;999.90;;;;;;;8.38;100.00;92862.88;5083830;28;20211;-67
2023/03/14 05:15:09;;;;;;;1999.90;999.90;;;;;;;8.38;100.00;92857.44;5083596;28;20231;-66
2023/03/14 05:17:35;;;;;;;1999.90;999.90;;;;;;;8.43;100.00;92859.59;5083632;28;20184;-66
2023/03/14 05:20:01;;;;;;;1999.90;999.90;;;;;;;8.38;100.00;92868.31;5083817;28;20172;-66
2023/03/14 05:22:26;;;;;;;1999.90;999.90;;;;;;;8.36;100.00;92865.31;5084118;28;20358;-65
2023/03/14 05:24:56;;;;;;;1999.90;999.90;;;;;;;8.37;100.00;92861.38;5083841;28;20174;-68
2023/03/14 05:27:22;;;;;;;1999.90;999.90;;;;;;;8.36;100.00;92870.75;5083920;28;20209;-66
2023/03/14 05:29:47;;;;;;;1999.90;999.90;;;;;;;8.32;100.00;92870.16;5083545;28;20166;-66
2023/03/14 05:32:13;;;;;;;1999.90;999.90;;;;;;;8.33;100.00;92874.38;5083094;28;20173;-65
2023/03/14 05:34:38;;;;;;;1999.90;999.90;;;;;;;8.33;100.00;92866.22;5083654;28;20193;-65
2023/03/14 05:37:03;;;;;;;1999.90;999.90;;;;;;;8.33;100.00;92865.44;5083875;28;20240;-66
2023/03/14 05:39:29;;;;;;;1999.90;999.90;;;;;;;8.33;100.00;92870.88;5083546;28;20165;-65
2023/03/14 05:41:55;;;;;;;1999.90;999.90;;;;;;;8.32;100.00;92872.88;5083378;28;20177;-66
2023/03/14 05:44:21;;;;;;;1999.90;999.90;;;;;;;8.34;100.00;92867.72;5083363;28;20193;-66
2023/03/14 05:46:47;;;;;;;1999.90;999.90;;;;;;;8.33;100.00;92858.06;5083352;28;20176;-66
2023/03/14 05:49:12;;;;;;;1999.90;999.90;;;;;;;8.36;100.00;92862.59;5083412;28;20186;-66
2023/03/14 05:51:37;;;;;;;1999.90;999.90;;;;;;;8.37;100.00;92858.66;5083955;28;20181;-66
2023/03/14 05:54:03;;;;;;;1999.90;999.90;;;;;;;8.36;100.00;92864.56;5083087;28;20219;-67
2023/03/14 05:56:28;;;;;;;1999.90;999.90;;;;;;;8.38;100.00;92852.00;5083632;28;20345;-67
2023/03/14 05:58:57;;;;;;;1999.90;999.90;;;;;;;8.39;100.00;92858.22;5083157;28;20165;-67
2023/03/14 06:01:22;;;;;;;1999.90;999.90;;;;;;;8.42;100.00;92855.34;5083186;28;20173;-64
2023/03/14 06:03:47;;;;;;;1999.90;999.90;;;;;;;8.43;100.00;92848.72;5083676;28;20169;-65
2023/03/14 06:06:12;;;;;;;1999.90;999.90;;;;;;;8.38;100.00;92843.84;5083388;28;20174;-65
2023/03/14 06:08:38;;;;;;;1999.90;999.90;;;;;;;8.37;100.00;92845.06;5083702;28;20177;-65
2023/03/14 06:11:03;;;;;;;1999.90;999.90;;;;;;;8.40;100.00;92855.06;5083071;28;20176;-65
2023/03/14 06:13:29;;;;;;;1999.90;999.90;;;;;;;8.42;100.00;92847.19;5086484;28;20267;-65
2023/03/14 06:15:54;;;;;;;1999.90;999.90;;;;;;;8.41;100.00;92844.94;5087079;28;20453;-65
2023/03/14 06:18:20;;;;;;;1999.90;999.90;;;;;;;8.41;100.00;92834.81;5087107;28;20170;-65
2023/03/14 06:20:45;;;;;;;1999.90;999.90;;;;;;;8.46;100.00;92836.94;5087030;28;20169;-65
2023/03/14 06:23:10;;;;;;;1999.90;999.90;;;;;;;8.50;100.00;92834.06;5086508;28;20177;-65
2023/03/14 06:25:36;;;;;;;1999.90;999.90;;;;;;;8.52;100.00;92843.28;5086562;28;20170;-65
2023/03/14 06:28:02;;;;;;;1999.90;999.90;;;;;;;8.54;100.00;92843.59;5086220;28;20243;-64
2023/03/14 06:30:27;;;;;;;1999.90;999.90;;;;;;;8.57;100.00;92853.56;5086388;28;20279;-63
2023/03/14 06:32:53;;;;;;;1999.90;999.90;;;;;;;8.62;100.00;92844.78;5086065;28;20165;-64
2023/03/14 06:35:18;;;;;;;1999.90;999.90;;;;;;;8.64;100.00;92834.19;5086170;28;20173;-64
2023/03/14 06:37:44;;;;;;;1999.90;999.90;;;;;;;8.65;100.00;92838.47;5086268;28;20214;-66
2023/03/14 06:40:12;;;;;;;1999.90;999.90;;;;;;;8.66;100.00;92844.63;5085868;28;20169;-65
2023/03/14 06:42:37;;;;;;;1999.90;999.90;;;;;;;8.74;100.00;92840.44;5086085;28;20196;-65
2023/03/14 06:45:03;;;;;;;1999.90;999.90;;;;;;;8.85;100.00;92841.47;5085985;28;20350;-63
2023/03/14 06:47:29;;;;;;;1999.90;999.90;;;;;;;8.94;100.00;92830.59;5085834;28;20173;-64
2023/03/14 06:49:54;;;;;;;1999.90;999.90;;;;;;;8.81;100.00;92849.03;5085971;28;20169;-64
2023/03/14 06:52:19;;;;;;;1999.90;999.90;;;;;;;8.81;100.00;92868.06;5085931;28;20240;-62
2023/03/14 06:54:44;;;;;;;1999.90;999.90;;;;;;;8.89;100.00;92879.41;5085675;28;20213;-63
2023/03/14 06:57:10;;;;;;;1999.90;999.90;;;;;;;8.91;100.00;92894.09;5085773;28;20180;-63
2023/03/14 06:59:35;;;;;;;1999.90;999.90;;;;;;;8.90;100.00;92892.56;5086294;28;20169;-65
2023/03/14 07:02:01;;;;;;;1999.90;999.90;;;;;;;8.98;100.00;92896.50;5085711;28;20180;-64
2023/03/14 07:04:26;;;;;;;1999.90;999.90;;;;;;;8.96;100.00;92901.63;5085973;28;20354;-63
2023/03/14 07:06:51;;;;;;;1999.90;999.90;;;;;;;8.95;100.00;92899.34;5085724;28;20166;-64
2023/03/14 07:09:17;;;;;;;1999.90;999.90;;;;;;;8.92;100.00;92928.25;5085526;28;20302;-65
2023/03/14 07:11:42;;;;;;;1999.90;999.90;;;;;;;8.90;100.00;92936.13;5086154;28;20169;-64
2023/03/14 07:14:08;;;;;;;1999.90;999.90;;;;;;;8.93;100.00;92950.78;5085850;28;20217;-64
2023/03/14 07:16:33;;;;;;;1999.90;999.90;;;;;;;9.00;100.00;92970.28;5085418;28;20177;-65
2023/03/14 07:19:00;;;;;;;1999.90;999.90;;;;;;;9.07;100.00;92964.53;5085832;28;20181;-64
2023/03/14 07:21:26;;;;;;;1999.90;999.90;;;;;;;9.06;100.00;92982.09;5085757;28;20165;-64
2023/03/14 07:23:51;;;;;;;1999.90;999.90;;;;;;;9.06;100.00;92986.78;5084603;28;20497;-64
2023/03/14 07:26:17;;;;;;;1999.90;999.90;;;;;;;9.08;100.00;92990.56;5085074;28;20169;-63
2023/03/14 07:28:42;;;;;;;1999.90;999.90;;;;;;;9.08;100.00;92996.03;5085347;28;20217;-64
2023/03/14 07:31:08;;;;;;;1999.90;999.90;;;;;;;9.12;100.00;92991.19;5085844;28;20176;-65
2023/03/14 07:33:33;;;;;;;1999.90;999.90;;;;;;;9.11;100.00;92995.09;5085541;28;20290;-64
2023/03/14 07:36:03;;;;;;;1999.90;999.90;;;;;;;9.13;100.00;92995.41;5068759;28;20246;-65
2023/03/14 07:38:31;;;;;;;1999.90;999.90;;;;;;;9.20;100.00;92988.91;5085416;28;20170;-65
2023/03/14 07:41:01;;;;;;;1999.90;999.90;;;;;;;9.25;100.00;92994.50;5085140;28;20173;-65
2023/03/14 07:43:27;;;;;;;1999.90;999.90;;;;;;;9.31;100.00;92989.22;5084587;28;20174;-65
2023/03/14 07:45:52;;;;;;;1999.90;999.90;;;;;;;9.35;100.00;92985.13;5085219;28;20223;-64
2023/03/14 07:48:18;;;;;;;1999.90;999.90;;;;;;;9.39;100.00;93029.31;5085134;28;20192;-65
2023/03/14 07:50:43;;;;;;;1999.90;999.90;;;;;;;9.50;100.00;93048.69;5085233;28;20319;-65
2023/03/14 07:53:08;;;;;;;1999.90;999.90;;;;;;;9.60;100.00;93069.28;5084604;28;20178;-65
2023/03/14 07:55:34;;;;;;;1999.90;999.90;;;;;;;9.66;100.00;93111.06;5084543;28;20201;-65
2023/03/14 07:57:59;;;;;;;1999.90;999.90;;;;;;;9.79;100.00;93152.56;5084433;28;20200;-65
2023/03/14 08:00:25;;;;;;;1999.90;999.90;;;;;;;9.92;100.00;93210.41;5085239;28;20216;-63
2023/03/14 08:02:50;;;;;;;1999.90;999.90;;;;;;;9.99;100.00;93255.75;5085056;28;20197;-64
2023/03/14 08:05:16;;;;;;;1999.90;999.90;;;;;;;10.19;100.00;93296.25;5084384;28;20370;-63
2023/03/14 08:07:41;;;;;;;1999.90;999.90;;;;;;;10.22;100.00;93338.97;5084511;28;20181;-63
2023/03/14 08:10:08;;;;;;;1999.90;999.90;;;;;;;10.32;100.00;93367.81;5084926;28;20176;-63
2023/03/14 08:12:33;;;;;;;1999.90;999.90;;;;;;;10.37;100.00;93391.78;5084408;28;20389;-63
2023/03/14 08:14:59;;;;;;;1999.90;999.90;;;;;;;10.40;100.00;93434.50;5084555;28;20200;-65
2023/03/14 08:17:24;;;;;;;1999.90;999.90;;;;;;;10.38;100.00;93442.41;5083882;28;20174;-64
2023/03/14 08:19:50;;;;;;;1999.90;999.90;;;;;;;10.49;100.00;93454.41;5084680;28;20169;-63
2023/03/14 08:22:15;;;;;;;1999.90;999.90;;;;;;;10.55;100.00;93479.13;5084425;28;20173;-64
2023/03/14 08:24:40;;;;;;;1999.90;999.90;;;;;;;10.55;100.00;93490.03;5084153;28;20183;-64
2023/03/14 08:27:06;;;;;;;1999.90;999.90;;;;;;;10.63;100.00;93502.22;5083985;28;20216;-63
2023/03/14 08:29:31;;;;;;;1999.90;999.90;;;;;;;10.71;100.00;93514.38;5084794;28;20184;-64
2023/03/14 08:31:57;;;;;;;1999.90;999.90;;;;;;;10.77;100.00;93523.50;5084535;28;20358;-65
2023/03/14 08:34:22;;;;;;;1999.90;999.90;;;;;;;10.77;100.00;93534.41;5084512;28;20223;-65
2023/03/14 08:36:47;;;;;;;1999.90;999.90;;;;;;;10.84;100.00;93545.06;5083335;28;20193;-63
2023/03/14 08:39:13;;;;;;;1999.90;999.90;;;;;;;10.93;100.00;93558.75;5084361;28;20176;-64
2023/03/14 08:41:40;;;;;;;1999.90;999.90;;;;;;;10.97;100.00;93570.31;5084638;28;20241;-65
2023/03/14 08:44:11;;;;;;;1999.90;999.90;;;;;;;11.03;100.00;93571.97;5084683;28;20199;-64
2023/03/14 08:46:36;;;;;;;1999.90;999.90;;;;;;;10.99;100.00;93585.03;5084318;28;20170;-64
2023/03/14 08:49:02;;;;;;;1999.90;999.90;;;;;;;11.00;100.00;93581.06;5084356;28;20172;-62
2023/03/14 08:51:28;;;;;;;1999.90;999.90;;;;;;;10.97;100.00;93589.41;5083886;28;20175;-63
2023/03/14 08:53:53;;;;;;;1999.90;999.90;;;;;;;10.95;100.00;93594.56;5083679;28;20209;-62
2023/03/14 08:56:19;;;;;;;1999.90;999.90;;;;;;;10.94;100.00;93595.78;5084248;28;20179;-63
2023/03/14 08:58:44;;;;;;;1999.90;999.90;;;;;;;10.93;100.00;93600.47;5083764;28;20183;-63
2023/03/14 09:01:10;;;;;;;1999.90;999.90;;;;;;;10.96;100.00;93607.03;5084368;28;20179;-63
2023/03/14 09:03:36;;;;;;;1999.90;999.90;;;;;;;10.97;100.00;93603.06;5083392;28;20175;-63
2023/03/14 09:06:11;;;;;;;1999.90;999.90;;;;;;;11.00;100.00;93599.44;5084136;28;20242;-62
2023/03/14 09:08:37;;;;;;;1999.90;999.90;;;;;;;11.04;100.00;93602.81;5083754;28;20201;-64
2023/03/14 09:11:02;;;;;;;1999.90;999.90;;;;;;;11.10;100.00;93601.75;5083592;28;20183;-63
2023/03/14 09:13:28;;;;;;;1999.90;999.90;;;;;;;11.15;100.00;93609.34;5083551;28;20561;-64
2023/03/14 09:15:54;;;;;;;1999.90;999.90;;;;;;;11.22;100.00;93611.81;5083624;28;20179;-64
2023/03/14 09:18:19;;;;;;;1999.90;999.90;;;;;;;11.29;100.00;93618.97;5083987;28;20186;-63
2023/03/14 09:20:45;;;;;;;1999.90;999.90;;;;;;;11.38;100.00;93616.25;5083534;28;20180;-65
2023/03/14 09:23:10;;;;;;;1999.90;999.90;;;;;;;11.41;100.00;93609.91;5083896;28;20212;-63
2023/03/14 09:25:36;;;;;;;1999.90;999.90;;;;;;;11.44;100.00;93625.41;5083903;28;20360;-66
2023/03/14 09:28:01;;;;;;;1999.90;999.90;;;;;;;11.42;100.00;93619.59;5083554;28;20220;-63
2023/03/14 09:30:26;;;;;;;1999.90;999.90;;;;;;;11.40;100.00;93620.06;5083681;28;20260;-65
2023/03/14 09:32:52;;;;;;;1999.90;999.90;;;;;;;11.30;100.00;93629.47;5083365;28;20176;-64
2023/03/14 09:35:17;;;;;;;1999.90;999.90;;;;;;;11.33;100.00;93616.88;5083536;28;20210;-63
2023/03/14 09:37:43;;;;;;;1999.90;999.90;;;;;;;11.28;100.00;93614.72;5083804;28;20404;-64
2023/03/14 09:40:20;;;;;;;1999.90;999.90;;;;;;;11.21;100.00;93606.78;5083790;28;20175;-64
2023/03/14 09:42:50;;;;;;;1999.90;999.90;;;;;;;11.24;100.00;93600.44;5083838;28;20210;-63
2023/03/14 09:45:28;;;;;;;1999.90;999.90;;;;;;;11.20;100.00;93599.81;5083211;28;20189;-65
2023/03/14 09:47:56;;;;;;;1999.90;999.90;;;;;;;11.02;100.00;93594.28;5086124;28;20202;-63
2023/03/14 09:50:23;;;;;;;1999.90;999.90;;;;;;;11.07;100.00;93593.72;5087092;28;20183;-63
2023/03/14 09:52:52;;;;;;;1999.90;999.90;;;;;;;11.06;100.00;93583.97;5087030;28;20180;-63
2023/03/14 09:55:21;;;;;;;1999.90;999.90;;;;;;;11.13;100.00;93589.16;5086881;28;20219;-65
2023/03/14 09:57:49;;;;;;;1999.90;999.90;;;;;;;11.20;100.00;93584.19;5086881;28;20186;-63
2023/03/14 10:00:23;;;;;;;1999.90;999.90;;;;;;;11.26;100.00;93570.69;5087015;28;20173;-63
2023/03/14 10:03:07;;;;;;;1999.90;999.90;;;;;;;11.33;100.00;93570.41;5087391;28;20203;-63
2023/03/14 10:05:32;;;;;;;1999.90;999.90;;;;;;;11.42;100.00;93567.69;5087364;28;20179;-64
2023/03/14 10:07:58;;;;;;;1999.90;999.90;;;;;;;11.52;100.00;93566.50;5087188;28;20187;-65
2023/03/14 10:10:25;;;;;;;1999.90;999.90;;;;;;;11.62;100.00;93576.25;5087146;28;20215;-64
2023/03/14 10:13:09;;;;;;;1999.90;999.90;;;;;;;11.70;100.00;93567.31;5087081;28;20234;-66
2023/03/14 10:15:36;;;;;;;1999.90;999.90;;;;;;;11.78;100.00;93573.22;5087169;28;20178;-64
2023/03/14 10:18:04;;;;;;;1999.90;999.90;;;;;;;11.85;100.00;93572.94;5086539;28;20353;-64
2023/03/14 10:20:38;;;;;;;1999.90;999.90;;;;;;;12.02;100.00;93574.16;5087019;28;20172;-64
2023/03/14 10:23:18;;;;;;;1999.90;999.90;;;;;;;12.08;100.00;93586.75;5086558;28;20171;-65
2023/03/14 10:26:08;;;;;;;1999.90;999.90;;;;;;;12.36;100.00;93590.25;5086480;28;20200;-64
2023/03/14 10:28:44;;;;;;;1999.90;999.90;;;;;;;13.09;100.00;93597.84;5086027;28;20220;-64
2023/03/14 10:31:10;;;;;;;1999.90;999.90;;;;;;;14.37;100.00;93598.56;5086085;28;20179;-65
2023/03/14 10:33:37;;;;;;;1999.90;999.90;;;;;;;15.36;100.00;93594.78;5086549;28;20201;-65
2023/03/14 10:36:14;;;;;;;1999.90;999.90;;;;;;;15.37;100.00;93602.56;5086169;28;20169;-62
2023/03/14 10:38:40;;;;;;;1999.90;999.90;;;;;;;15.31;100.00;93598.97;5086590;28;20516;-63
2023/03/14 10:41:26;;;;;;;1999.90;999.90;;;;;;;15.36;100.00;93595.56;5086422;28;20240;-63
2023/03/14 10:43:58;;;;;;;1999.90;999.90;;;;;;;15.57;100.00;93599.88;5086051;28;20180;-62
2023/03/14 10:46:26;;;;;;;1999.90;999.90;;;;;;;15.84;100.00;93613.25;5086577;28;20193;-63
2023/03/14 10:48:53;;;;;;;1999.90;999.90;;;;;;;16.27;100.00;93608.78;5086101;28;20196;-62